createdAt,value
2016-07-14T00:01:50.131Z,1006.63
2016-07-14T00:04:55.123Z,1006.61
2016-07-14T00:08:08.952Z,1006.57
2016-07-14T00:11:22.688Z,1006.61
2016-07-14T00:14:36.322Z,1006.65
2016-07-14T00:17:50.118Z,1006.75
2016-07-14T00:21:03.652Z,1006.67
2016-07-14T00:24:17.341Z,1006.67
2016-07-14T00:27:30.805Z,1006.63
2016-07-14T00:30:48.265Z,1006.57
2016-07-14T00:33:52.943Z,1006.44
2016-07-14T00:37:06.306Z,1006.5
2016-07-14T00:40:18.620Z,1006.44
2016-07-14T00:43:33.217Z,1006.4
2016-07-14T00:46:50.551Z,1006.28
2016-07-14T00:49:55.110Z,1006.28
2016-07-14T00:53:08.626Z,1006.26
2016-07-14T00:56:21.846Z,1006.4
2016-07-14T00:59:35.070Z,1006.46
2016-07-14T01:02:52.538Z,1006.34
2016-07-14T01:05:57.121Z,1006.46
2016-07-14T01:09:10.513Z,1006.4
2016-07-14T01:12:23.890Z,1006.46
2016-07-14T01:15:37.133Z,1006.4
2016-07-14T01:18:50.367Z,1006.34
2016-07-14T01:22:03.862Z,1006.3
2016-07-14T01:25:17.244Z,1006.3
2016-07-14T01:28:30.671Z,1006.42
2016-07-14T01:31:48.064Z,1006.44
2016-07-14T01:34:52.675Z,1006.42
2016-07-14T01:38:06.213Z,1006.46
2016-07-14T01:41:19.517Z,1006.42
2016-07-14T01:44:33.007Z,1006.46
2016-07-14T01:47:50.440Z,1006.44
2016-07-14T01:50:55.077Z,1006.5
2016-07-14T01:54:08.197Z,1006.54
2016-07-14T01:57:21.806Z,1006.48
2016-07-14T02:00:35.376Z,1006.44
2016-07-14T02:03:52.942Z,1006.42
2016-07-14T02:06:57.535Z,1006.44
2016-07-14T02:10:10.826Z,1006.3
2016-07-14T02:13:24.219Z,1006.16
2016-07-14T02:16:37.599Z,1006.28
2016-07-14T02:19:51.062Z,1006.3
2016-07-14T02:23:04.418Z,1006.34
2016-07-14T02:26:17.683Z,1006.32
2016-07-14T02:29:31.111Z,1006.42
2016-07-14T02:32:48.362Z,1006.46
2016-07-14T02:35:53.145Z,1006.48
2016-07-14T02:39:06.608Z,1006.48
2016-07-14T02:42:20.022Z,1006.3
2016-07-14T02:45:33.438Z,1006.24
2016-07-14T02:48:50.445Z,1006.34
2016-07-14T02:51:54.975Z,1006.36
2016-07-14T02:55:08.194Z,1006.42
2016-07-14T02:58:21.235Z,1006.36
2016-07-14T03:01:34.693Z,1006.46
2016-07-14T03:04:51.908Z,1006.48
2016-07-14T03:07:56.213Z,1006.44
2016-07-14T03:11:09.336Z,1006.52
2016-07-14T03:14:22.233Z,1006.57
2016-07-14T03:17:35.169Z,1006.67
2016-07-14T03:20:52.092Z,1006.71
2016-07-14T03:23:56.057Z,1006.73
2016-07-14T03:27:09.073Z,1006.85
2016-07-14T03:30:22.184Z,1006.75
2016-07-14T03:33:35.132Z,1006.65
2016-07-14T03:36:52.083Z,1006.73
2016-07-14T03:39:56.206Z,1006.48
2016-07-14T03:43:09.159Z,1006.38
2016-07-14T03:46:22.213Z,1006.44
2016-07-14T03:49:35.138Z,1006.52
2016-07-14T03:52:52.269Z,1006.67
2016-07-14T03:55:56.407Z,1006.63
2016-07-14T03:59:09.063Z,1006.52
2016-07-14T04:02:22.167Z,1006.59
2016-07-14T04:05:35.236Z,1006.65
2016-07-14T04:08:49.869Z,1006.71
2016-07-14T04:11:53.858Z,1006.75
2016-07-14T04:15:06.706Z,1006.79
2016-07-14T04:18:19.623Z,1006.95
2016-07-14T04:21:32.679Z,1006.97
2016-07-14T04:24:49.475Z,1007.03
2016-07-14T04:27:53.777Z,1007.01
2016-07-14T04:31:06.412Z,1006.93
2016-07-14T04:34:19.052Z,1006.99
2016-07-14T04:37:31.740Z,1007.01
2016-07-14T04:40:48.649Z,1006.95
2016-07-14T04:43:52.589Z,1006.99
2016-07-14T04:47:05.384Z,1006.97
2016-07-14T04:50:18.271Z,1006.87
2016-07-14T04:53:31.020Z,1006.87
2016-07-14T04:56:47.640Z,1006.73
2016-07-14T04:59:51.531Z,1006.65
2016-07-14T05:03:04.524Z,1006.61
2016-07-14T05:06:17.372Z,1006.67
2016-07-14T05:09:30.199Z,1006.63
2016-07-14T05:12:46.868Z,1006.71
2016-07-14T05:15:50.664Z,1006.63
2016-07-14T05:19:03.298Z,1006.54
2016-07-14T05:22:15.960Z,1006.44
2016-07-14T05:25:28.676Z,1006.3
2016-07-14T05:28:45.443Z,1006.24
2016-07-14T05:31:53.221Z,1006.24
2016-07-14T05:34:57.084Z,1006.24
2016-07-14T05:38:09.594Z,1006.16
2016-07-14T05:41:22.258Z,1006.14
2016-07-14T05:44:34.619Z,1006.1
2016-07-14T05:47:51.297Z,1006.1
2016-07-14T05:50:55.050Z,1006.08
2016-07-14T05:54:07.841Z,1006.08
2016-07-14T05:57:20.607Z,1006.06
2016-07-14T06:00:32.921Z,1005.98
2016-07-14T06:03:49.510Z,1005.92
2016-07-14T06:06:53.504Z,1006
2016-07-14T06:10:06.511Z,1006.02
2016-07-14T06:13:19.163Z,1006.06
2016-07-14T06:16:32.207Z,1006.04
2016-07-14T06:19:48.997Z,1006
2016-07-14T06:22:53.177Z,1006
2016-07-14T06:26:06.353Z,1006.04
2016-07-14T06:29:19.436Z,1006.04
2016-07-14T06:32:32.381Z,1006.04
2016-07-14T06:35:49.417Z,1006.04
2016-07-14T06:38:53.645Z,1005.96
2016-07-14T06:42:06.647Z,1006.08
2016-07-14T06:45:19.703Z,1006.16
2016-07-14T06:48:32.675Z,1006.12
2016-07-14T06:51:49.707Z,1006.12
2016-07-14T06:54:54.046Z,1006.06
2016-07-14T06:58:07.190Z,1006.08
2016-07-14T07:01:19.156Z,1006
2016-07-14T07:04:33.277Z,1006.06
2016-07-14T07:07:50.499Z,1006.14
2016-07-14T07:10:54.604Z,1006.1
2016-07-14T07:14:07.745Z,1006.3
2016-07-14T07:17:20.998Z,1006.24
2016-07-14T07:20:32.917Z,1006.26
2016-07-14T07:23:51.271Z,1006.22
2016-07-14T07:26:55.663Z,1006.38
2016-07-14T07:30:08.953Z,1006.38
2016-07-14T07:33:22.176Z,1006.28
2016-07-14T07:36:35.385Z,1006.36
2016-07-14T07:39:52.424Z,1006.32
2016-07-14T07:42:56.877Z,1006.54
2016-07-14T07:46:06.587Z,1006.46
2016-07-14T07:49:19.864Z,1006.44
2016-07-14T07:52:33.538Z,1006.4
2016-07-14T07:55:50.693Z,1006.46
2016-07-14T07:58:55.043Z,1006.42
2016-07-14T08:02:08.098Z,1006.34
2016-07-14T08:05:21.322Z,1006.42
2016-07-14T08:08:34.616Z,1006.42
2016-07-14T08:11:51.793Z,1006.42
2016-07-14T08:14:56.167Z,1006.42
2016-07-14T08:18:09.266Z,1006.44
2016-07-14T08:21:22.496Z,1006.48
2016-07-14T08:24:35.757Z,1006.44
2016-07-14T08:27:53.072Z,1006.36
2016-07-14T08:30:57.287Z,1006.36
2016-07-14T08:34:10.457Z,1006.32
2016-07-14T08:37:27.654Z,1006.4
2016-07-14T08:40:36.803Z,1006.5
2016-07-14T08:43:49.973Z,1006.46
2016-07-14T08:47:03.187Z,1006.42
2016-07-14T08:50:16.117Z,1006.28
2016-07-14T08:53:29.389Z,1006.28
2016-07-14T08:56:46.506Z,1006.34
2016-07-14T08:59:50.794Z,1006.38
2016-07-14T09:03:03.955Z,1006.26
2016-07-14T09:06:16.988Z,1006.38
2016-07-14T09:09:29.593Z,1006.4
2016-07-14T09:12:44.104Z,1006.32
2016-07-14T09:15:52.547Z,1006.32
2016-07-14T09:18:56.948Z,1006.28
2016-07-14T09:22:10.145Z,1006.4
2016-07-14T09:25:23.411Z,1006.4
2016-07-14T09:28:36.610Z,1006.36
2016-07-14T09:31:49.654Z,1006.44
2016-07-14T09:35:00.769Z,1006.46
2016-07-14T09:38:14.378Z,1006.4
2016-07-14T09:41:27.387Z,1006.38
2016-07-14T09:44:44.654Z,1006.4
2016-07-14T09:47:53.090Z,1006.4
2016-07-14T09:50:56.755Z,1006.3
2016-07-14T09:54:11.180Z,1006.3
2016-07-14T09:57:24.632Z,1006.32
2016-07-14T10:00:37.968Z,1006.38
2016-07-14T10:03:50.961Z,1006.48
2016-07-14T10:07:08.259Z,1006.42
2016-07-14T10:10:12.948Z,1006.61
2016-07-14T10:13:26.221Z,1006.65
2016-07-14T10:16:43.664Z,1006.63
2016-07-14T10:19:52.235Z,1006.46
2016-07-14T10:22:56.807Z,1006.57
2016-07-14T10:26:10.049Z,1006.55
2016-07-14T10:29:23.295Z,1006.63
2016-07-14T10:32:36.806Z,1006.59
2016-07-14T10:35:50.305Z,1006.65
2016-07-14T10:39:03.777Z,1006.75
2016-07-14T10:42:17.252Z,1006.71
2016-07-14T10:45:30.686Z,1006.71
2016-07-14T10:48:48.251Z,1006.69
2016-07-14T10:51:53.077Z,1006.79
2016-07-14T10:55:06.235Z,1006.79
2016-07-14T10:58:18.734Z,1006.81
2016-07-14T11:01:33.207Z,1006.83
2016-07-14T11:04:51.490Z,1006.87
2016-07-14T11:07:55.051Z,1006.85
2016-07-14T11:11:08.455Z,1007.05
2016-07-14T11:14:21.848Z,1006.93
2016-07-14T11:17:35.116Z,1007.09
2016-07-14T11:20:52.283Z,1007.13
2016-07-14T11:23:56.974Z,1007.15
2016-07-14T11:27:10.422Z,1007.17
2016-07-14T11:30:23.191Z,1007.25
2016-07-14T11:33:36.507Z,1007.29
2016-07-14T11:36:49.916Z,1007.23
2016-07-14T11:40:03.373Z,1007.29
2016-07-14T11:43:16.783Z,1007.33
2016-07-14T11:46:30.265Z,1007.29
2016-07-14T11:49:47.289Z,1007.35
2016-07-14T11:52:51.979Z,1007.41
2016-07-14T11:56:05.399Z,1007.27
2016-07-14T11:59:18.891Z,1007.29
2016-07-14T12:02:32.059Z,1007.25
2016-07-14T12:05:49.150Z,1007.21
2016-07-14T12:08:53.612Z,1007.29
2016-07-14T12:12:04.912Z,1007.27
2016-07-14T12:15:18.391Z,1007.23
2016-07-14T12:18:31.891Z,1007.09
2016-07-14T12:21:49.092Z,1007.17
2016-07-14T12:24:53.681Z,1007.21
2016-07-14T12:28:06.875Z,1007.15
2016-07-14T12:31:20.198Z,1007.19
2016-07-14T12:34:33.193Z,1007.15
2016-07-14T12:37:50.219Z,1007.23
2016-07-14T12:40:54.341Z,1007.13
2016-07-14T12:44:07.533Z,1007.09
2016-07-14T12:47:20.753Z,1007.19
2016-07-14T12:50:33.936Z,1007.13
2016-07-14T12:53:51.141Z,1007.15
2016-07-14T12:56:55.402Z,1007.07
2016-07-14T13:00:08.761Z,1007.13
2016-07-14T13:03:22.052Z,1007.17
2016-07-14T13:06:35.480Z,1007.19
2016-07-14T13:09:52.801Z,1007.15
2016-07-14T13:12:57.423Z,1007.15
2016-07-14T13:16:10.806Z,1007.17
2016-07-14T13:19:24.075Z,1007.27
2016-07-14T13:22:37.461Z,1007.19
2016-07-14T13:25:50.943Z,1007.19
2016-07-14T13:29:04.216Z,1007.31
2016-07-14T13:32:17.549Z,1007.31
2016-07-14T13:35:30.728Z,1007.21
2016-07-14T13:38:47.820Z,1007.25
2016-07-14T13:41:52.330Z,1007.21
2016-07-14T13:45:05.670Z,1007.25
2016-07-14T13:48:19.044Z,1007.29
2016-07-14T13:51:32.527Z,1007.25
2016-07-14T13:54:50.036Z,1007.27
2016-07-14T13:57:54.632Z,1007.31
2016-07-14T14:01:07.956Z,1007.37
2016-07-14T14:04:21.249Z,1007.31
2016-07-14T14:07:34.762Z,1007.29
2016-07-14T14:10:50.674Z,1007.27
2016-07-14T14:13:55.256Z,1007.27
2016-07-14T14:17:06.271Z,1007.19
2016-07-14T14:20:19.669Z,1007.23
2016-07-14T14:23:33.086Z,1007.23
2016-07-14T14:26:47.135Z,1007.33
2016-07-14T14:29:51.655Z,1007.23
2016-07-14T14:33:02.205Z,1007.23
2016-07-14T14:36:13.388Z,1007.19
2016-07-14T14:39:26.492Z,1007.23
2016-07-14T14:42:44.049Z,1007.19
2016-07-14T14:45:52.769Z,1007.23
2016-07-14T14:48:57.228Z,1007.19
2016-07-14T14:52:10.593Z,1007.15
2016-07-14T14:55:23.876Z,1007.19
2016-07-14T14:58:37.154Z,1007.13
2016-07-14T15:01:50.579Z,1007.13
2016-07-14T15:05:03.777Z,1007.09
2016-07-14T15:08:17.039Z,1007.13
2016-07-14T15:11:30.345Z,1007.17
2016-07-14T15:14:46.020Z,1007.11
2016-07-14T15:17:50.448Z,1007.13
2016-07-14T15:21:03.361Z,1007.07
2016-07-14T15:24:16.651Z,1007.03
2016-07-14T15:27:29.932Z,1007.07
2016-07-14T15:30:46.927Z,1006.99
2016-07-14T15:33:51.808Z,1007.11
2016-07-14T15:37:05.218Z,1006.97
2016-07-14T15:40:18.745Z,1007.07
2016-07-14T15:43:32.365Z,1006.91
2016-07-14T15:46:49.811Z,1006.99
2016-07-14T15:49:54.512Z,1006.93
2016-07-14T15:53:07.675Z,1006.95
2016-07-14T15:56:21.150Z,1006.87
2016-07-14T15:59:34.119Z,1006.99
2016-07-14T16:02:51.533Z,1006.93
2016-07-14T16:05:55.990Z,1006.81
2016-07-14T16:09:09.017Z,1006.91
2016-07-14T16:12:22.303Z,1006.85
2016-07-14T16:15:35.254Z,1006.85
2016-07-14T16:18:52.676Z,1006.91
2016-07-14T16:21:56.922Z,1006.91
2016-07-14T16:25:09.932Z,1006.85
2016-07-14T16:28:23.068Z,1006.83
2016-07-14T16:31:35.916Z,1006.79
2016-07-14T16:34:53.136Z,1006.77
2016-07-14T16:37:57.638Z,1006.71
2016-07-14T16:41:07.573Z,1006.75
2016-07-14T16:44:20.808Z,1006.69
2016-07-14T16:47:34.346Z,1006.75
2016-07-14T16:53:55.982Z,1006.79
2016-07-14T16:57:09.392Z,1006.83
2016-07-14T17:00:22.821Z,1006.77
2016-07-14T17:03:36.299Z,1006.81
2016-07-14T17:06:53.631Z,1006.81
2016-07-14T17:09:58.091Z,1006.79
2016-07-14T17:13:11.239Z,1006.75
2016-07-14T17:16:24.356Z,1006.73
2016-07-14T17:19:37.504Z,1006.71
2016-07-14T17:22:51.773Z,1006.73
2016-07-14T17:25:56.223Z,1006.71
2016-07-14T17:29:09.298Z,1006.81
2016-07-14T17:32:22.459Z,1006.83
2016-07-14T17:35:35.755Z,1006.77
2016-07-14T17:38:52.934Z,1006.73
2016-07-14T17:41:57.441Z,1006.75
2016-07-14T17:45:10.050Z,1006.71
2016-07-14T17:48:23.497Z,1006.79
2016-07-14T17:51:36.832Z,1006.79
2016-07-14T17:54:50.154Z,1006.81
2016-07-14T17:58:01.395Z,1006.63
2016-07-14T18:01:14.730Z,1006.65
2016-07-14T18:04:27.913Z,1006.71
2016-07-14T18:07:45.224Z,1006.69
2016-07-14T18:10:53.456Z,1006.73
2016-07-14T18:13:57.961Z,1006.67
2016-07-14T18:17:10.971Z,1006.75
2016-07-14T18:20:24.174Z,1006.79
2016-07-14T18:23:37.270Z,1006.83
2016-07-14T18:26:50.546Z,1006.79
2016-07-14T18:30:03.928Z,1006.73
2016-07-14T18:33:17.228Z,1006.73
2016-07-14T18:36:30.481Z,1006.63
2016-07-14T18:39:47.515Z,1006.75
2016-07-14T18:42:52.001Z,1006.79
2016-07-14T18:46:05.172Z,1006.77
2016-07-14T18:49:18.256Z,1006.77
2016-07-14T18:52:31.602Z,1006.77
2016-07-14T18:55:48.673Z,1006.83
2016-07-14T18:58:52.956Z,1006.83
2016-07-14T19:02:05.954Z,1006.93
2016-07-14T19:05:19.091Z,1006.91
2016-07-14T19:08:32.421Z,1006.85
2016-07-14T19:11:49.456Z,1007.01
2016-07-14T19:14:53.937Z,1007.03
2016-07-14T19:18:04.329Z,1007.17
2016-07-14T19:21:17.560Z,1007.13
2016-07-14T19:24:30.942Z,1007.17
2016-07-14T19:27:44.307Z,1007.15
2016-07-14T19:30:52.625Z,1007.35
2016-07-14T19:33:56.900Z,1007.33
2016-07-14T19:37:10.090Z,1007.29
2016-07-14T19:40:27.404Z,1007.43
2016-07-14T19:43:36.438Z,1007.47
2016-07-14T19:46:53.746Z,1007.39
2016-07-14T19:49:58.072Z,1007.53
2016-07-14T19:53:11.006Z,1007.57
2016-07-14T19:56:23.945Z,1007.63
2016-07-14T19:59:37.199Z,1007.59
2016-07-14T20:02:50.423Z,1007.63
2016-07-14T20:06:03.538Z,1007.63
2016-07-14T20:09:16.731Z,1007.57
2016-07-14T20:12:30.000Z,1007.55
2016-07-14T20:15:46.822Z,1007.57
2016-07-14T20:18:51.101Z,1007.63
2016-07-14T20:22:04.327Z,1007.63
2016-07-14T20:25:17.189Z,1007.69
2016-07-14T20:28:30.462Z,1007.65
2016-07-14T20:31:47.607Z,1007.81
2016-07-14T20:34:51.823Z,1007.83
2016-07-14T20:38:04.766Z,1007.79
2016-07-14T20:41:17.869Z,1007.89
2016-07-14T20:44:30.923Z,1007.89
2016-07-14T20:47:48.102Z,1007.89
2016-07-14T20:50:52.398Z,1008.02
2016-07-14T20:54:05.476Z,1007.98
2016-07-14T20:57:18.182Z,1008.08
2016-07-14T21:00:31.132Z,1008.02
2016-07-14T21:03:48.091Z,1008.1
2016-07-14T21:06:52.255Z,1008.1
2016-07-14T21:10:05.605Z,1008.06
2016-07-14T21:13:18.617Z,1007.97
2016-07-14T21:16:31.667Z,1008.1
2016-07-14T21:19:48.809Z,1008.04
2016-07-14T21:22:53.303Z,1008.06
2016-07-14T21:26:06.504Z,1008.02
2016-07-14T21:29:19.750Z,1008.02
2016-07-14T21:32:32.756Z,1008.1
2016-07-14T21:35:49.658Z,1008.14
2016-07-14T21:38:54.004Z,1008.1
2016-07-14T21:42:06.873Z,1008.06
2016-07-14T21:45:19.896Z,1008.08
2016-07-14T21:48:32.907Z,1008
2016-07-14T21:51:50.075Z,1008.08
2016-07-14T21:54:54.414Z,1008.06
2016-07-14T21:58:07.637Z,1008.12
2016-07-14T22:01:20.484Z,1008.04
2016-07-14T22:04:33.177Z,1008.1
2016-07-14T22:07:50.266Z,1008.1
2016-07-14T22:10:54.511Z,1008.12
2016-07-14T22:14:06.574Z,1008.18
2016-07-14T22:17:20.458Z,1008.14
2016-07-14T22:20:33.515Z,1008.26
2016-07-14T22:23:50.587Z,1008.3
2016-07-14T22:26:54.739Z,1008.18
2016-07-14T22:30:07.783Z,1008.28
2016-07-14T22:33:20.911Z,1008.34
2016-07-14T22:36:33.927Z,1008.3
2016-07-14T22:39:50.943Z,1008.38
2016-07-14T22:42:55.205Z,1008.44
2016-07-14T22:46:08.271Z,1008.36
2016-07-14T22:49:21.337Z,1008.46
2016-07-14T22:52:34.183Z,1008.46
2016-07-14T22:55:50.685Z,1008.46
2016-07-14T22:58:54.666Z,1008.54
2016-07-14T23:02:07.674Z,1008.44
2016-07-14T23:05:20.623Z,1008.52
2016-07-14T23:08:33.431Z,1008.52
2016-07-14T23:11:50.416Z,1008.48
2016-07-14T23:14:54.636Z,1008.52
2016-07-14T23:18:07.553Z,1008.56
2016-07-14T23:21:20.667Z,1008.6
2016-07-14T23:24:33.640Z,1008.62
2016-07-14T23:27:50.388Z,1008.66
2016-07-14T23:30:54.563Z,1008.54
2016-07-14T23:34:07.582Z,1008.56
2016-07-14T23:37:20.587Z,1008.6
2016-07-14T23:40:33.484Z,1008.6
2016-07-14T23:43:50.599Z,1008.6
2016-07-14T23:46:54.767Z,1008.78
2016-07-14T23:50:07.769Z,1008.74
2016-07-14T23:53:20.774Z,1008.78
2016-07-14T23:56:33.715Z,1008.78
2016-07-14T23:59:51.052Z,1008.88
